• Join FlightAware (Why Join?)
  • Login
  • US Flag 
12:02PM EST


 

Airport Tracker/Info


-or-


 

Live Flight TrackerFlight Track Log ✈ N757AN ✈ 16-Oct-2013 ✈ RJAA / NRT - KDFW

Flight Track Log - Related Links

Times and Time Zones

All times are in EDT time to prevent confusion due to time zone crossing. See the N757AN flight status page for this flight to view local times or setup timezone preferences in your user account.

Time Position Orientation Groundspeed Altitude Reporting Facility
EDT Latitude Longitude Course Direction KTS MPH feet Rate Location/Type
06:13AM 35.7880 140.3590 329° Northwest 185 213 1,600  Level FlightAware
06:13AM 35.8030 140.3480 329° Northwest 186 214 2,400 2,100 Climbing FlightAware
06:14AM 35.8180 140.3370 329° Northwest 189 217 3,000 1,920 Climbing FlightAware
06:14AM 35.8330 140.3260 329° Northwest 191 220 3,700 1,500 Climbing FlightAware
06:14AM 35.8490 140.3140 329° Northwest 212 244 4,000 1,020 Climbing FlightAware
06:15AM 35.8740 140.2970 331° Northwest 242 278 4,500 1,080 Climbing FlightAware
06:15AM 35.8870 140.2910 339° North 254 292 4,700 1,200 Climbing FlightAware
06:15AM 35.8960 140.2890 350° North 260 299 4,900 2,160 Climbing FlightAware
06:16AM 35.9190 140.2970 16° North 262 302 5,800 2,100 Climbing FlightAware
06:16AM 35.9370 140.3170 42° Northeast 280 322 6,300 1,740 Climbing FlightAware
06:16AM 35.9460 140.3400 64° Northeast 286 329 6,800 1,980 Climbing FlightAware
06:16AM 35.9490 140.3540 75° East 294 338 7,100 1,380 Climbing FlightAware
06:16AM 35.9510 140.3740 83° East 304 350 7,300 1,080 Climbing FlightAware
06:17AM 35.9470 140.4130 97° East 319 367 7,800 1,020 Climbing FlightAware
06:17AM 35.9380 140.4410 112° Southeast 334 384 8,000 720 Climbing FlightAware
06:17AM 35.9260 140.4600 128° Southeast 351 404 8,100 1,020 Climbing FlightAware
06:18AM 35.8950 140.5000 134° Southeast 372 428 8,700 1,380 Climbing FlightAware
06:18AM 35.8760 140.5260 132° Southeast 377 434 9,200 1,860 Climbing FlightAware
06:18AM 35.8560 140.5540 131° Southeast 383 441 9,700 2,520 Climbing FlightAware
06:19AM 35.8100 140.6290 127° Southeast 390 449 11,600 2,640 Climbing FlightAware
06:19AM 35.8010 140.6530 115° Southeast 398 458 12,000 2,040 Climbing FlightAware
06:19AM 35.7930 140.6900 105° East 409 471 12,600 2,100 Climbing FlightAware
06:20AM 35.7940 140.7660 89° East 426 490 13,700 1,980 Climbing FlightAware
06:21AM 35.8040 140.8510 82° East 438 504 14,800 900 Climbing FlightAware
06:21AM 35.8210 140.9770 81° East 444 511 15,000 480 Climbing FlightAware
06:22AM 35.8320 141.0670 81° East 450 518 15,500 1,260 Climbing FlightAware
06:23AM 35.8440 141.1540 80° East 462 532 16,500 1,680 Climbing FlightAware
06:23AM 35.8570 141.2490 80° East 475 547 17,500 1,560 Climbing FlightAware
06:24AM 35.8710 141.3460 80° East 486 559 18,400 1,440 Climbing FlightAware
06:24AM 35.8860 141.4400 79° East 496 571 19,200 1,200 Climbing FlightAware
06:25AM 35.9050 141.5510 78° East 520 598 19,900 840 Climbing FlightAware
06:26AM 35.9320 141.6420 70° East 535 616 20,300 900 Climbing FlightAware
06:26AM 35.9670 141.7560 69° East 552 635 21,000 840 Climbing FlightAware
06:27AM 36.0010 141.8590 68° East 569 655 21,300 900 Climbing FlightAware
06:27AM 36.0370 141.9650 67° East 574 661 22,100 1,320 Climbing FlightAware
06:28AM 36.0730 142.0730 68° East 579 666 22,900 1,260 Climbing FlightAware
06:29AM 36.1080 142.1800 68° East 581 669 23,600 1,680 Climbing FlightAware
06:29AM 36.1440 142.2870 67° East 568 654 24,900 1,860 Climbing FlightAware
06:30AM 36.1760 142.3850 68° East 568 654 25,800 1,260 Climbing FlightAware
06:30AM 36.2140 142.4990 68° East 572 658 26,400 1,020 Climbing FlightAware
06:31AM 36.2470 142.6010 68° East 572 658 27,000 1,020 Climbing FlightAware
06:31AM 36.2830 142.7110 68° East 575 662 27,600 900 Climbing FlightAware
06:32AM 36.3180 142.8190 68° East 577 664 28,100 480 Climbing FlightAware
06:33AM 36.3560 142.9380 68° East 578 665 28,300 420 Climbing FlightAware
06:33AM 36.3980 143.0680 68° East 593 682 28,700 600 Climbing FlightAware
06:34AM 36.4340 143.1790 68° East 603 694 29,000 240 Climbing FlightAware
06:35AM 36.4620 143.2680 69° East 603 694 29,000 420 Level FlightAware
06:35AM 36.5060 143.4040 68° East 616 709 29,500 600 Climbing FlightAware
06:36AM 36.5480 143.5380 69° East 621 715 29,800 480 Climbing FlightAware
06:36AM 36.5860 143.6570 68° East 626 720 30,100 480 Climbing FlightAware
06:37AM 36.6350 143.8090 68° East 625 719 30,500 240 Climbing FlightAware
06:38AM 36.6680 143.9120 68° East 625 719 30,500  Level FlightAware
06:38AM 36.7010 144.0140 68° East 625 719 30,500  Level FlightAware
06:39AM 36.7340 144.1160 68° East 625 719 30,500  Level FlightAware
06:40AM 36.7670 144.2190 68° East 625 719 30,500  Level FlightAware
06:40AM 36.8000 144.3210 68° East 625 719 30,500  Level FlightAware
06:41AM 36.8330 144.4240 68° East 625 719 30,500  Level FlightAware
06:41AM 36.8670 144.5290 68° East 625 719 30,500 900 Level FlightAware
06:42AM 36.9590 144.8670 71° East 666 766 32,000 840 Climbing FlightAware
06:43AM 36.9930 144.9830 70° East 610 702 32,000  Level FlightAware
06:44AM 37.0230 145.0850 70° East 610 702 32,000  Level FlightAware
06:44AM 37.0520 145.1860 70° East 610 702 32,000  Level FlightAware
06:45AM 37.0820 145.2880 70° East 610 702 32,000  Level FlightAware
06:46AM 37.1110 145.3900 70° East 610 702 32,000  Level FlightAware
06:46AM 37.1420 145.4940 69° East 610 702 32,000  Level FlightAware
06:47AM 37.1710 145.5960 70° East 610 702 32,000  Level FlightAware
06:47AM 37.2010 145.7010 70° East 610 702 32,000  Level FlightAware
06:48AM 37.2310 145.8030 70° East 610 702 32,000  Level FlightAware
06:49AM 37.2600 145.9050 70° East 610 702 32,000  Level FlightAware
06:49AM 37.2900 146.0070 70° East 610 702 32,000  Level FlightAware
06:50AM 37.3190 146.1090 70° East 610 702 32,000  Level FlightAware
06:50AM 37.3500 146.2140 70° East 610 702 32,000  Level FlightAware
06:51AM 37.3790 146.3160 70° East 610 702 32,000  Level FlightAware
06:52AM 37.4100 146.4210 70° East 610 702 32,000  Level FlightAware
06:52AM 37.4400 146.5260 70° East 610 702 32,000  Level FlightAware
06:55AM 37.6593 146.8428 49° Northeast  Level Estimated
06:56AM 37.7557 146.9832 49° Northeast  Level Estimated
06:57AM 37.8520 147.1240 49° Northeast  Level Estimated
06:58AM 37.9481 147.2651 49° Northeast  Level Estimated
06:59AM 38.0441 147.4066 49° Northeast  Level Estimated
07:00AM 38.1399 147.5484 49° Northeast  Level Estimated
07:01AM 38.2355 147.6906 49° Northeast  Level Estimated
07:02AM 38.3310 147.8332 50° Northeast  Level Estimated
07:03AM 38.4262 147.9762 50° Northeast  Level Estimated
07:04AM 38.5213 148.1195 50° Northeast  Level Estimated
07:05AM 38.6162 148.2633 50° Northeast  Level Estimated
07:06AM 38.7110 148.4074 50° Northeast  Level Estimated
07:07AM 38.8056 148.5519 50° Northeast  Level Estimated
07:08AM 38.8999 148.6967 50° Northeast  Level Estimated
07:09AM 38.9942 148.8420 50° Northeast  Level Estimated
07:10AM 39.0882 148.9877 50° Northeast  Level Estimated
07:11AM 39.1820 149.1337 50° Northeast  Level Estimated
07:12AM 39.2757 149.2801 50° Northeast  Level Estimated
07:13AM 39.3692 149.4269 50° Northeast  Level Estimated
07:14AM 39.4625 149.5741 51° Northeast  Level Estimated
07:15AM 39.5567 149.7236 51° Northeast  Level Estimated
07:16AM 39.6508 149.8734 51° Northeast  Level Estimated
07:17AM 39.7447 150.0236 51° Northeast  Level Estimated
07:18AM 39.8383 150.1743 51° Northeast  Level Estimated
07:19AM 39.9318 150.3253 51° Northeast  Level Estimated
07:20AM 40.0251 150.4768 51° Northeast  Level Estimated
07:21AM 40.1182 150.6287 51° Northeast  Level Estimated
07:22AM 40.2111 150.7810 51° Northeast  Level Estimated
07:23AM 40.3037 150.9337 51° Northeast  Level Estimated
07:24AM 40.3962 151.0869 52° Northeast  Level Estimated
07:25AM 40.4885 151.2404 52° Northeast  Level Estimated
07:26AM 40.5806 151.3944 52° Northeast  Level Estimated
07:27AM 40.6725 151.5488 52° Northeast  Level Estimated
07:28AM 40.7641 151.7036 52° Northeast  Level Estimated
07:29AM 40.8556 151.8589 52° Northeast  Level Estimated
07:30AM 40.9468 152.0146 52° Northeast  Level Estimated
07:31AM 41.0379 152.1707 52° Northeast  Level Estimated
07:32AM 41.1287 152.3272 52° Northeast  Level Estimated
07:33AM 41.2193 152.4842 52° Northeast  Level Estimated
07:34AM 41.3097 152.6416 53° Northeast  Level Estimated
07:35AM 41.3999 152.7995 53° Northeast  Level Estimated
07:36AM 41.4899 152.9578 53° Northeast  Level Estimated
07:37AM 41.5796 153.1165 53° Northeast  Level Estimated
07:38AM 41.6692 153.2757 53° Northeast  Level Estimated
07:39AM 41.7585 153.4353 53° Northeast  Level Estimated
07:40AM 41.8476 153.5954 53° Northeast  Level Estimated
07:41AM 41.9364 153.7558 53° Northeast  Level Estimated
07:42AM 42.0251 153.9168 53° Northeast  Level Estimated
07:43AM 42.1135 154.0782 54° Northeast  Level Estimated
07:44AM 42.2017 154.2401 54° Northeast  Level Estimated
07:45AM 42.2897 154.4023 54° Northeast  Level Estimated
07:46AM 42.3774 154.5651 54° Northeast  Level Estimated
07:47AM 42.4649 154.7283 54° Northeast  Level Estimated
07:48AM 42.5522 154.8920 54° Northeast  Level Estimated
07:49AM 42.6392 155.0561 54° Northeast  Level Estimated
07:50AM 42.7260 155.2207 54° Northeast  Level Estimated
07:51AM 42.8126 155.3858 54° Northeast  Level Estimated
07:52AM 42.8989 155.5513 55° Northeast  Level Estimated
07:53AM 42.9850 155.7172 55° Northeast  Level Estimated
07:54AM 43.0709 155.8837 55° Northeast  Level Estimated
07:55AM 43.1565 156.0506 55° Northeast  Level Estimated
07:56AM 43.2419 156.2179 55° Northeast  Level Estimated
07:57AM 43.3270 156.3858 55° Northeast  Level Estimated
07:58AM 43.4118 156.5541 55° Northeast  Level Estimated
07:59AM 43.4965 156.7229 55° Northeast  Level Estimated
08:00AM 43.5809 156.8921 55° Northeast  Level Estimated
08:01AM 43.6650 157.0618 56° Northeast  Level Estimated
08:02AM 43.7489 157.2321 56° Northeast  Level Estimated
08:03AM 43.8325 157.4027 56° Northeast  Level Estimated
08:04AM 43.9159 157.5739 56° Northeast  Level Estimated
08:05AM 43.9990 157.7455 56° Northeast  Level Estimated
08:06AM 44.0821 157.9182 56° Northeast  Level Estimated
08:07AM 44.1649 158.0913 56° Northeast  Level Estimated
08:08AM 44.2475 158.2649 56° Northeast  Level Estimated
08:09AM 44.3298 158.4391 56° Northeast  Level Estimated
08:10AM 44.4119 158.6136 57° Northeast  Level Estimated
08:11AM 44.4937 158.7887 57° Northeast  Level Estimated
08:12AM 44.5752 158.9643 57° Northeast  Level Estimated
08:13AM 44.6565 159.1404 57° Northeast  Level Estimated
08:14AM 44.7374 159.3170 57° Northeast  Level Estimated
08:15AM 44.8181 159.4940 57° Northeast  Level Estimated
08:16AM 44.8986 159.6716 57° Northeast  Level Estimated
08:17AM 44.9787 159.8496 57° Northeast  Level Estimated
08:18AM 45.0586 160.0282 58° Northeast  Level Estimated
08:19AM 45.1382 160.2072 58° Northeast  Level Estimated
08:20AM 45.2175 160.3868 58° Northeast  Level Estimated
08:21AM 45.2966 160.5668 58° Northeast  Level Estimated
08:22AM 45.3753 160.7474 58° Northeast  Level Estimated
08:23AM 45.4538 160.9284 58° Northeast  Level Estimated
08:24AM 45.5320 161.1100 58° Northeast  Level Estimated
08:25AM 45.6099 161.2920 59° Northeast  Level Estimated
08:26AM 45.6875 161.4746 59° Northeast  Level Estimated
08:27AM 45.7648 161.6577 59° Northeast  Level Estimated
08:28AM 45.8418 161.8412 59° Northeast  Level Estimated
08:29AM 45.9186 162.0253 59° Northeast  Level Estimated
08:30AM 45.9950 162.2099 59° Northeast  Level Estimated
08:31AM 46.0711 162.3951 59° Northeast  Level Estimated
08:32AM 46.1469 162.5807 59° Northeast  Level Estimated
08:32AM 45.3500 166.1500 75° East 574 661 32,000  Level Oakland Oceanic (ODAPS)
08:33AM 46.2225 162.7668 60° Northeast  Level Estimated
08:34AM 46.2977 162.9534 60° Northeast  Level Estimated
08:35AM 46.3726 163.1406 60° Northeast  Level Estimated
08:36AM 46.4473 163.3282 60° Northeast  Level Estimated
08:37AM 46.5216 163.5164 60° Northeast  Level Estimated
08:38AM 45.5810 167.4233 76° East 574 661 32,000  Level FlightAware Transoceanic
08:39AM 45.6181 167.6365 76° East 574 661 32,000  Level FlightAware Transoceanic
08:40AM 45.6548 167.8500 76° East 574 661 32,000  Level FlightAware Transoceanic
08:41AM 45.6912 168.0638 76° East 574 661 32,000  Level FlightAware Transoceanic
08:42AM 45.7271 168.2779 77° East 574 661 32,000  Level FlightAware Transoceanic
08:43AM 45.7626 168.4922 77° East 574 661 32,000  Level FlightAware Transoceanic
08:44AM 45.7977 168.7068 77° East 574 661 32,000  Level FlightAware Transoceanic
08:45AM 45.8325 168.9217 77° East 574 661 32,000  Level FlightAware Transoceanic
08:46AM 45.8668 169.1368 77° East 574 661 32,000 660 Level FlightAware Transoceanic
08:46AM 45.8667 169.1667 77° East 574 661 33,000  Climbing Oakland Oceanic (ODAPS)
08:47AM 45.9007 169.3522 77° East 574 661 32,000 -720 Descending FlightAware Transoceanic
08:48AM 45.9342 169.5679 77° East 574 661 32,000  Level FlightAware Transoceanic
08:49AM 45.9673 169.7838 78° East 574 661 32,000  Level FlightAware Transoceanic
08:50AM 46.0000 170.0000 86° East 574 661 32,000 840 Level FlightAware Transoceanic
08:50AM 46.0000 170.0000 86° East 581 669 33,000 1,440 Climbing Oakland Oceanic (ODAPS)
08:50AM 46.0000 170.1167 86° East 583 671 33,000 -1,200 Level Oakland Oceanic (ODAPS)
08:51AM 46.0095 170.2217 87° East 574 661 32,000  Descending FlightAware Transoceanic
08:52AM 46.0185 170.4434 87° East 574 661 33,000 480 Climbing FlightAware Transoceanic
08:53AM 46.0271 170.6653 87° East 574 661 33,000  Level FlightAware Transoceanic
08:54AM 46.0353 170.8871 87° East 574 661 33,000  Level FlightAware Transoceanic
08:55AM 46.0431 171.1091 87° East 574 661 33,000  Level FlightAware Transoceanic
08:56AM 46.0524 171.3931 87° East 581 669 33,000  Level FlightAware Transoceanic
08:57AM 46.0581 171.7232 88° East 583 671 33,000  Level FlightAware Transoceanic
08:58AM 46.0645 171.9530 88° East 583 671 33,000  Level FlightAware Transoceanic
08:59AM 46.0705 172.1828 88° East 583 671 33,000  Level FlightAware Transoceanic
09:00AM 46.0761 172.4127 88° East 583 671 33,000  Level FlightAware Transoceanic
09:00AM 46.0833 172.3500 88° East 584 672 33,000  Level Oakland Oceanic (ODAPS)
09:01AM 46.0812 172.6426 88° East 583 671 33,000  Level FlightAware Transoceanic
09:02AM 46.0858 172.8725 88° East 583 671 33,000  Level FlightAware Transoceanic
09:03AM 46.0899 173.1025 89° East 583 671 33,000  Level FlightAware Transoceanic
09:04AM 46.0936 173.3326 89° East 583 671 33,000  Level FlightAware Transoceanic
09:05AM 46.0969 173.5626 89° East 583 671 33,000  Level FlightAware Transoceanic
09:06AM 46.1062 173.7415 89° East 584 672 33,000  Level FlightAware Transoceanic
09:07AM 46.1083 173.9735 89° East 584 672 33,000  Level FlightAware Transoceanic
09:08AM 46.1100 174.2056 89° East 584 672 33,000  Level FlightAware Transoceanic
09:09AM 46.1113 174.4376 90° East 584 672 33,000  Level FlightAware Transoceanic
09:10AM 46.1120 174.6696 90° East 584 672 33,000  Level FlightAware Transoceanic
09:11AM 46.1123 174.9017 90° East 584 672 33,000  Level FlightAware Transoceanic
09:12AM 46.1121 175.1337 90° East 584 672 33,000  Level FlightAware Transoceanic
09:13AM 46.1115 175.3658 90° East 584 672 33,000  Level FlightAware Transoceanic
09:14AM 46.1104 175.5978 90° East 584 672 33,000  Level FlightAware Transoceanic
09:14AM 46.1000 175.5667 90° East 585 673 33,000  Level Oakland Oceanic (ODAPS)
09:15AM 46.1088 175.8299 91° East 584 672 33,000  Level FlightAware Transoceanic
09:16AM 46.1067 176.0619 91° East 584 672 33,000  Level FlightAware Transoceanic
09:17AM 46.1042 176.2939 91° East 584 672 33,000  Level FlightAware Transoceanic
09:18AM 46.1012 176.5259 91° East 584 672 33,000  Level FlightAware Transoceanic
09:19AM 46.0977 176.7578 91° East 584 672 33,000  Level FlightAware Transoceanic
09:20AM 46.0869 176.9682 91° East 585 673 33,000  Level FlightAware Transoceanic
09:21AM 46.0831 177.2017 91° East 585 673 33,000  Level FlightAware Transoceanic
09:22AM 46.0788 177.4352 92° East 585 673 33,000  Level FlightAware Transoceanic
09:23AM 46.0740 177.6686 92° East 585 673 33,000  Level FlightAware Transoceanic
09:24AM 46.0687 177.9020 92° East 585 673 33,000  Level FlightAware Transoceanic
09:25AM 46.0630 178.1354 92° East 585 673 33,000  Level FlightAware Transoceanic
09:26AM 46.0568 178.3687 92° East 585 673 33,000  Level FlightAware Transoceanic
09:27AM 46.0501 178.6019 92° East 585 673 33,000  Level FlightAware Transoceanic
09:27AM 46.0500 178.8167 93° East 583 671 33,000  Level Oakland Oceanic (ODAPS)
09:28AM 46.0429 178.8351 93° East 585 673 33,000  Level FlightAware Transoceanic
09:29AM 46.0353 179.0682 93° East 585 673 33,000  Level FlightAware Transoceanic
09:30AM 46.0272 179.3013 93° East 585 673 33,000  Level FlightAware Transoceanic
09:31AM 46.0186 179.5343 93° East 585 673 33,000  Level FlightAware Transoceanic
09:32AM 46.0095 179.7672 93° East 585 673 33,000  Level FlightAware Transoceanic
09:33AM 46.0000 -180.0000 102° East 585 673 33,000  Level FlightAware Transoceanic
09:33AM 46.0000 180.0000 102° East 585 673 33,000  Level Oakland Oceanic (ODAPS)
09:34AM 45.9667 -179.7803 102° East 583 671 33,000  Level FlightAware Transoceanic
09:35AM 45.9331 -179.5609 103° East 583 671 33,000  Level FlightAware Transoceanic
09:36AM 45.8989 -179.3418 103° East 583 671 33,000  Level FlightAware Transoceanic
09:37AM 45.8644 -179.1229 103° East 583 671 33,000  Level FlightAware Transoceanic
09:38AM 45.8295 -178.9043 103° East 583 671 33,000  Level FlightAware Transoceanic
09:39AM 45.7846 -178.6278 103° East 585 673 33,000  Level FlightAware Transoceanic
09:40AM 45.7472 -178.4001 103° East 585 673 33,000  Level FlightAware Transoceanic
09:41AM 45.7092 -178.1728 104° East 585 673 33,000  Level FlightAware Transoceanic
09:41AM 45.6833 -177.9667 104° East 594 684 33,000  Level Oakland Oceanic (ODAPS)
09:42AM 45.6708 -177.9458 104° East 585 673 33,000  Level FlightAware Transoceanic
09:43AM 45.6320 -177.7190 104° East 585 673 33,000  Level FlightAware Transoceanic
09:44AM 45.5927 -177.4926 104° East 585 673 33,000  Level FlightAware Transoceanic
09:45AM 45.5530 -177.2665 104° East 585 673 33,000  Level FlightAware Transoceanic
09:46AM 45.5128 -177.0408 104° East 585 673 33,000  Level FlightAware Transoceanic
09:47AM 45.4722 -176.8153 104° East 585 673 33,000  Level FlightAware Transoceanic
09:48AM 45.4346 -176.5686 105° East 594 684 33,000  Level FlightAware Transoceanic
09:49AM 45.3915 -176.3369 105° East 594 684 33,000  Level FlightAware Transoceanic
09:50AM 45.3479 -176.1054 105° East 594 684 33,000  Level FlightAware Transoceanic
09:51AM 45.3039 -175.8743 105° East 594 684 33,000  Level FlightAware Transoceanic
09:52AM 45.2594 -175.6436 105° East 594 684 33,000  Level FlightAware Transoceanic
09:53AM 45.2144 -175.4133 106° East 594 684 33,000  Level FlightAware Transoceanic
09:54AM 45.1690 -175.1833 106° East 594 684 33,000  Level FlightAware Transoceanic
09:55AM 45.1231 -174.9537 106° East 594 684 33,000  Level FlightAware Transoceanic
09:55AM 45.0833 -174.8000 106° East 595 685 33,000  Level Oakland Oceanic (ODAPS)
09:56AM 45.0768 -174.7244 106° East 594 684 33,000  Level FlightAware Transoceanic
09:57AM 45.0299 -174.4956 106° East 594 684 33,000  Level FlightAware Transoceanic
09:58AM 44.9827 -174.2671 106° East 594 684 33,000  Level FlightAware Transoceanic
09:59AM 44.9350 -174.0390 107° East 594 684 33,000  Level FlightAware Transoceanic
10:00AM 44.8868 -173.8112 107° East 594 684 33,000  Level FlightAware Transoceanic
10:01AM 44.8438 -173.6411 107° East 595 685 33,000  Level FlightAware Transoceanic
10:02AM 44.7944 -173.4105 107° East 595 685 33,000  Level FlightAware Transoceanic
10:03AM 44.7447 -173.1803 107° East 595 685 33,000  Level FlightAware Transoceanic
10:04AM 44.6944 -172.9505 107° East 595 685 33,000  Level FlightAware Transoceanic
10:05AM 44.6437 -172.7210 107° East 595 685 33,000  Level FlightAware Transoceanic
10:06AM 44.5925 -172.4920 108° East 595 685 33,000  Level FlightAware Transoceanic
10:07AM 44.5409 -172.2634 108° East 595 685 33,000  Level FlightAware Transoceanic
10:08AM 44.4889 -172.0352 108° East 595 685 33,000  Level FlightAware Transoceanic
10:09AM 44.4363 -171.8074 108° East 595 685 33,000  Level FlightAware Transoceanic
10:09AM 44.4167 -171.7000 108° East 589 678 33,000  Level Oakland Oceanic (ODAPS)
10:10AM 44.3834 -171.5800 108° East 595 685 33,000  Level FlightAware Transoceanic
10:11AM 44.3299 -171.3530 108° East 595 685 33,000  Level FlightAware Transoceanic
10:12AM 44.2761 -171.1265 108° East 595 685 33,000  Level FlightAware Transoceanic
10:13AM 44.2217 -170.9003 109° East 595 685 33,000  Level FlightAware Transoceanic
10:14AM 44.1670 -170.6746 109° East 595 685 33,000  Level FlightAware Transoceanic
10:15AM 44.1065 -170.4227 109° East 589 678 33,000  Level FlightAware Transoceanic
10:16AM 44.0535 -170.2112 109° East 589 678 33,000  Level FlightAware Transoceanic
10:17AM 44.0000 -170.0000 102° East 589 678 33,000  Level FlightAware Transoceanic
10:17AM 44.0000 -170.0000 102° East 558 642 33,000  Level Oakland Oceanic (ODAPS)
10:18AM 43.9693 -169.7980 102° East 589 678 33,000  Level FlightAware Transoceanic
10:19AM 43.9383 -169.5962 102° East 589 678 33,000  Level FlightAware Transoceanic
10:20AM 43.9069 -169.3946 102° East 589 678 33,000  Level FlightAware Transoceanic
10:21AM 43.8752 -169.1932 102° East 589 678 33,000  Level FlightAware Transoceanic
10:22AM 43.8431 -168.9920 103° East 589 678 33,000  Level FlightAware Transoceanic
10:23AM 43.8027 -168.7419 103° East 558 642 33,000  Level FlightAware Transoceanic
10:23AM 43.8000 -168.7500 103° East 544 626 33,000  Level Oakland Oceanic (ODAPS)
10:24AM 43.7685 -168.5330 103° East 558 642 33,000  Level FlightAware Transoceanic
10:25AM 43.7339 -168.3244 103° East 558 642 33,000  Level FlightAware Transoceanic
10:26AM 43.6989 -168.1160 103° East 558 642 33,000  Level FlightAware Transoceanic
10:27AM 43.6635 -167.9078 103° East 558 642 33,000  Level FlightAware Transoceanic
10:28AM 43.6278 -167.6999 103° East 558 642 33,000  Level FlightAware Transoceanic
10:29AM 43.5944 -167.5276 104° East 544 626 33,000  Level FlightAware Transoceanic
10:30AM 43.5588 -167.3247 104° East 544 626 33,000  Level FlightAware Transoceanic
10:31AM 43.5230 -167.1221 104° East 544 626 33,000  Level FlightAware Transoceanic
10:32AM 43.4867 -166.9196 104° East 544 626 33,000  Level FlightAware Transoceanic
10:33AM 43.4501 -166.7175 104° East 544 626 33,000  Level FlightAware Transoceanic
10:34AM 43.4132 -166.5155 104° East 544 626 33,000  Level FlightAware Transoceanic
10:35AM 43.3758 -166.3139 104° East 544 626 33,000  Level FlightAware Transoceanic
10:36AM 43.3382 -166.1124 104° East 544 626 33,000  Level FlightAware Transoceanic
10:37AM 43.3001 -165.9112 105° East 544 626 33,000 2,040 Level FlightAware Transoceanic
10:37AM 43.3167 -165.9833 105° East 526 605 35,600  Climbing Oakland Oceanic (ODAPS)
10:38AM 43.2618 -165.7103 105° East 544 626 33,000 -1,500 Descending FlightAware Transoceanic
10:39AM 43.2230 -165.5096 105° East 544 626 33,000  Level FlightAware Transoceanic
10:40AM 43.1840 -165.3092 105° East 544 626 33,000 1,680 Level FlightAware Transoceanic
10:40AM 43.1833 -165.3167 105° East 526 605 36,000  Climbing Oakland Oceanic (ODAPS)
10:41AM 43.1445 -165.1091 105° East 544 626 33,000 -2,400 Descending FlightAware Transoceanic
10:42AM 43.1048 -164.9091 105° East 544 626 33,000 1,260 Level FlightAware Transoceanic
10:43AM 43.0937 -164.8425 105° East 526 605 35,600 1,260 Climbing FlightAware Transoceanic
10:44AM 43.0555 -164.6531 106° East 526 605 35,600  Level FlightAware Transoceanic
10:45AM 43.0169 -164.4640 106° East 526 605 35,600  Level FlightAware Transoceanic
10:46AM 42.9780 -164.2752 106° East 526 605 35,600 180 Level FlightAware Transoceanic
10:47AM 42.9107 -163.9688 106° East 526 605 36,000 180 Climbing FlightAware Transoceanic
10:48AM 42.8705 -163.7772 106° East 526 605 36,000  Level FlightAware Transoceanic
10:49AM 42.8299 -163.5859 106° East 526 605 36,000  Level FlightAware Transoceanic
10:50AM 42.7891 -163.3948 106° East 526 605 36,000  Level FlightAware Transoceanic
10:51AM 42.7479 -163.2040 106° East 526 605 36,000  Level FlightAware Transoceanic
10:51AM 42.7667 -163.3167 106° East 528 608 36,000  Level Oakland Oceanic (ODAPS)
10:52AM 42.7064 -163.0134 107° East 526 605 36,000  Level FlightAware Transoceanic
10:53AM 42.6645 -162.8231 107° East 526 605 36,000  Level FlightAware Transoceanic
10:54AM 42.6224 -162.6331 107° East 526 605 36,000  Level FlightAware Transoceanic
10:55AM 42.5799 -162.4433 107° East 526 605 36,000  Level FlightAware Transoceanic
10:56AM 42.5372 -162.2538 107° East 526 605 36,000  Level FlightAware Transoceanic
10:57AM 42.5218 -162.2021 107° East 528 608 36,000  Level FlightAware Transoceanic
10:58AM 42.4799 -162.0172 107° East 528 608 36,000  Level FlightAware Transoceanic
10:59AM 42.4377 -161.8326 107° East 528 608 36,000  Level FlightAware Transoceanic
11:00AM 42.3953 -161.6482 107° East 528 608 36,000  Level FlightAware Transoceanic
11:01AM 42.3525 -161.4641 108° East 528 608 36,000  Level FlightAware Transoceanic
11:02AM 42.3095 -161.2802 108° East 528 608 36,000  Level FlightAware Transoceanic
11:03AM 42.2662 -161.0965 108° East 528 608 36,000  Level FlightAware Transoceanic
11:04AM 42.2225 -160.9131 108° East 528 608 36,000  Level FlightAware Transoceanic
11:05AM 42.1786 -160.7300 108° East 528 608 36,000  Level FlightAware Transoceanic
11:05AM 42.1833 -160.7500 108° East 508 585 36,000  Level Oakland Oceanic (ODAPS)
11:06AM 42.1344 -160.5471 108° East 528 608 36,000  Level FlightAware Transoceanic
11:07AM 42.0899 -160.3645 108° East 528 608 36,000  Level FlightAware Transoceanic
11:08AM 42.0451 -160.1821 108° East 528 608 36,000  Level FlightAware Transoceanic
11:09AM 42.0000 -160.0000 94° East 528 608 36,000  Level FlightAware Transoceanic
11:09AM 42.0000 -160.0000 94° East 521 600 36,000  Level Oakland Oceanic (ODAPS)
11:10AM 41.9888 -159.8013 94° East 528 608 36,000  Level FlightAware Transoceanic
11:11AM 41.9777 -159.6104 95° East 508 585 36,000  Level FlightAware Transoceanic
11:12AM 41.9661 -159.4157 95° East 508 585 36,000  Level FlightAware Transoceanic
11:13AM 41.9541 -159.2211 95° East 508 585 36,000  Level FlightAware Transoceanic
11:14AM 41.9418 -159.0265 95° East 508 585 36,000  Level FlightAware Transoceanic
11:15AM 41.9292 -158.8320 95° East 521 600 36,000  Level FlightAware Transoceanic
11:16AM 41.9163 -158.6376 95° East 521 600 36,000  Level FlightAware Transoceanic
11:17AM 41.9030 -158.4433 95° East 521 600 36,000  Level FlightAware Transoceanic
11:18AM 41.8894 -158.2491 95° East 521 600 36,000  Level FlightAware Transoceanic
11:18AM 41.8833 -158.1667 95° East 521 600 36,000  Level Oakland Oceanic (ODAPS)
11:19AM 41.8755 -158.0549 96° East 521 600 36,000  Level FlightAware Transoceanic
11:20AM 41.8612 -157.8608 96° East 521 600 36,000  Level FlightAware Transoceanic
11:21AM 41.8466 -157.6668 96° East 521 600 36,000  Level FlightAware Transoceanic
11:22AM 41.8317 -157.4729 96° East 521 600 36,000  Level FlightAware Transoceanic
11:23AM 41.8165 -157.2791 96° East 521 600 36,000  Level FlightAware Transoceanic
11:24AM 41.8009 -157.0854 96° East 521 600 36,000  Level FlightAware Transoceanic
11:25AM 41.7950 -157.0147 96° East 521 600 36,000  Level FlightAware Transoceanic
11:26AM 41.7792 -156.8231 96° East 521 600 36,000  Level FlightAware Transoceanic
11:27AM 41.7630 -156.6315 97° East 521 600 36,000  Level FlightAware Transoceanic
11:28AM 41.7465 -156.4400 97° East 521 600 36,000  Level FlightAware Transoceanic
11:29AM 41.7298 -156.2486 97° East 521 600 36,000  Level FlightAware Transoceanic
11:30AM 41.7126 -156.0574 97° East 521 600 36,000  Level FlightAware Transoceanic
11:31AM 41.6952 -155.8662 97° East 521 600 36,000  Level FlightAware Transoceanic
11:32AM 41.6775 -155.6751 97° East 521 600 36,000  Level FlightAware Transoceanic
11:32AM 41.6667 -155.6000 97° East 521 600 36,000  Level Oakland Oceanic (ODAPS)
11:33AM 41.6594 -155.4842 97° East 521 600 36,000  Level FlightAware Transoceanic
11:34AM 41.6410 -155.2933 97° East 521 600 36,000  Level FlightAware Transoceanic
11:35AM 41.6223 -155.1026 98° East 521 600 36,000  Level FlightAware Transoceanic
11:36AM 41.6033 -154.9119 98° East 521 600 36,000  Level FlightAware Transoceanic
11:37AM 41.5840 -154.7214 98° East 521 600 36,000  Level FlightAware Transoceanic
11:38AM 41.5644 -154.5310 98° East 521 600 36,000  Level FlightAware Transoceanic
11:39AM 41.5511 -154.4323 98° East 521 600 36,000  Level FlightAware Transoceanic
11:40AM 41.5307 -154.2381 98° East 521 600 36,000  Level FlightAware Transoceanic
11:41AM 41.5100 -154.0440 98° East 521 600 36,000  Level FlightAware Transoceanic
11:42AM 41.4889 -153.8501 98° East 521 600 36,000  Level FlightAware Transoceanic
11:43AM 41.4675 -153.6562 98° East 521 600 36,000  Level FlightAware Transoceanic
11:44AM 41.4458 -153.4626 99° East 521 600 36,000  Level FlightAware Transoceanic
11:45AM 41.4238 -153.2690 99° East 521 600 36,000  Level FlightAware Transoceanic
11:46AM 41.4014 -153.0756 99° East 521 600 36,000  Level FlightAware Transoceanic
11:46AM 41.3833 -152.9333 99° East 533 613 36,000  Level Oakland Oceanic (ODAPS)
11:47AM 41.3787 -152.8823 99° East 521 600 36,000  Level FlightAware Transoceanic
11:48AM 41.3557 -152.6891 99° East 521 600 36,000  Level FlightAware Transoceanic
11:49AM 41.3324 -152.4961 99° East 521 600 36,000  Level FlightAware Transoceanic
11:50AM 41.3088 -152.3032 99° East 521 600 36,000  Level FlightAware Transoceanic
11:51AM 41.2848 -152.1104 99° East 521 600 36,000  Level FlightAware Transoceanic
11:52AM 41.2638 -151.9518 100° East 533 613 36,000  Level FlightAware Transoceanic
11:53AM 41.2389 -151.7559 100° East 533 613 36,000  Level FlightAware Transoceanic
11:54AM 41.2137 -151.5602 100° East 533 613 36,000  Level FlightAware Transoceanic
11:55AM 41.1881 -151.3646 100° East 533 613 36,000  Level FlightAware Transoceanic
11:56AM 41.1623 -151.1692 100° East 533 613 36,000  Level FlightAware Transoceanic
11:57AM 41.1360 -150.9739 100° East 533 613 36,000  Level FlightAware Transoceanic
11:58AM 41.1095 -150.7788 100° East 533 613 36,000  Level FlightAware Transoceanic
11:59AM 41.0826 -150.5839 100° East 533 613 36,000  Level FlightAware Transoceanic
12:00PM 41.0554 -150.3891 101° East 533 613 36,000  Level FlightAware Transoceanic
12:00PM 41.0333 -150.2667 99° East 543 625 36,000  Level Oakland Oceanic (ODAPS)
12:01PM 41.0279 -150.1945 101° East 533 613 36,000  Level FlightAware Transoceanic
12:01PM 41.0000 -150.0000 87° East 525 604 36,000  Level Oakland Oceanic (ODAPS)
12:02PM 41.0000 -150.0000 87° East 533 613 36,000  Level FlightAware Transoceanic
12:03PM 41.0081 -149.8081 87° East 533 613 36,000  Level FlightAware Transoceanic
12:04PM 41.0160 -149.6161 87° East 533 613 36,000  Level FlightAware Transoceanic
12:05PM 41.0235 -149.4241 87° East 533 613 36,000  Level FlightAware Transoceanic
12:06PM 41.0307 -149.2321 87° East 533 613 36,000  Level FlightAware Transoceanic
12:07PM 41.0369 -149.0581 87° East 543 625 36,000  Level FlightAware Transoceanic
12:08PM 41.0441 -148.8479 87° East 525 604 36,000  Level FlightAware Transoceanic
12:09PM 41.0504 -148.6557 88° East 525 604 36,000  Level FlightAware Transoceanic
12:10PM 41.0563 -148.4635 88° East 525 604 36,000  Level FlightAware Transoceanic
12:11PM 41.0619 -148.2713 88° East 525 604 36,000  Level FlightAware Transoceanic
12:12PM 41.0672 -148.0790 88° East 525 604 36,000  Level FlightAware Transoceanic
12:13PM 41.0722 -147.8867 88° East 525 604 36,000  Level FlightAware Transoceanic
12:14PM 41.0768 -147.6944 88° East 525 604 36,000  Level FlightAware Transoceanic
12:14PM 41.0833 -147.5333 88° East 527 606 36,000  Level Oakland Oceanic (ODAPS)
12:15PM 41.0811 -147.5021 88° East 525 604 36,000  Level FlightAware Transoceanic
12:16PM 41.0851 -147.3097 88° East 525 604 36,000  Level FlightAware Transoceanic
12:17PM 41.0888 -147.1173 89° East 525 604 36,000  Level FlightAware Transoceanic
12:18PM 41.0922 -146.9249 89° East 525 604 36,000  Level FlightAware Transoceanic
12:19PM 41.0952 -146.7324 89° East 525 604 36,000  Level FlightAware Transoceanic
12:20PM 41.1025 -146.3740 89° East 527 606 36,000  Level FlightAware Transoceanic
12:21PM 41.1045 -146.1807 89° East 527 606 36,000  Level FlightAware Transoceanic
12:22PM 41.1063 -145.9874 89° East 527 606 36,000  Level FlightAware Transoceanic
12:23PM 41.1077 -145.7941 90° East 527 606 36,000  Level FlightAware Transoceanic
12:24PM 41.1088 -145.6008 90° East 527 606 36,000  Level FlightAware Transoceanic
12:25PM 41.1096 -145.4074 90° East 527 606 36,000  Level FlightAware Transoceanic
12:26PM 41.1100 -145.2141 90° East 527 606 36,000  Level FlightAware Transoceanic
12:27PM 41.1101 -145.0208 90° East 527 606 36,000  Level FlightAware Transoceanic
12:28PM 41.1099 -144.8275 90° East 527 606 36,000  Level FlightAware Transoceanic
12:28PM 41.1000 -144.8167 90° East 519 597 36,000  Level Oakland Oceanic (ODAPS)
12:29PM 41.1094 -144.6342 90° East 527 606 36,000  Level FlightAware Transoceanic
12:30PM 41.1086 -144.4408 90° East 527 606 36,000  Level FlightAware Transoceanic
12:31PM 41.1074 -144.2475 91° East 527 606 36,000  Level FlightAware Transoceanic
12:32PM 41.1059 -144.0542 91° East 527 606 36,000  Level FlightAware Transoceanic
12:33PM 41.1041 -143.8609 91° East 527 606 36,000  Level FlightAware Transoceanic
12:34PM 41.0943 -143.6596 91° East 519 597 36,000  Level FlightAware Transoceanic
12:35PM 41.0922 -143.4667 91° East 519 597 36,000  Level FlightAware Transoceanic
12:36PM 41.0898 -143.2739 91° East 519 597 36,000  Level FlightAware Transoceanic
12:37PM 41.0871 -143.0811 91° East 519 597 36,000  Level FlightAware Transoceanic
12:38PM 41.0841 -142.8884 91° East 519 597 36,000  Level FlightAware Transoceanic
12:39PM 41.0807 -142.6956 91° East 519 597 36,000  Level FlightAware Transoceanic
12:40PM 41.0770 -142.5029 92° East 519 597 36,000  Level FlightAware Transoceanic
12:41PM 41.0730 -142.3102 92° East 519 597 36,000  Level FlightAware Transoceanic
12:41PM 41.0833 -142.3333 92° East 499 574 36,100  Climbing Oakland Oceanic (ODAPS)
12:42PM 41.0687 -142.1175 92° East 519 597 36,000 1,560 Descending FlightAware Transoceanic
12:42PM 41.0833 -142.2333 92° East 498 573 36,800  Climbing Oakland Oceanic (ODAPS)
12:43PM 41.0641 -141.9248 92° East 519 597 36,000 -480 Descending FlightAware Transoceanic
12:44PM 41.0591 -141.7321 92° East 519 597 36,000  Level FlightAware Transoceanic
12:45PM 41.0538 -141.5396 92° East 519 597 36,000  Level FlightAware Transoceanic
12:46PM 41.0482 -141.3470 92° East 519 597 36,000  Level FlightAware Transoceanic
12:47PM 41.0507 -141.2557 93° East 499 574 36,100 360 Climbing FlightAware Transoceanic
12:48PM 41.0471 -141.1160 93° East 498 573 36,800 300 Climbing FlightAware Transoceanic
12:49PM 41.0400 -140.9299 93° East 498 573 36,800  Level FlightAware Transoceanic
12:50PM 41.0326 -140.7438 93° East 498 573 36,800  Level FlightAware Transoceanic
12:51PM 41.0249 -140.5578 93° East 498 573 36,800  Level FlightAware Transoceanic
12:52PM 41.0169 -140.3718 93° East 498 573 36,800  Level FlightAware Transoceanic
12:53PM 41.0086 -140.1859 93° East 498 573 36,800  Level FlightAware Transoceanic
12:54PM 41.0000 -140.0000 94° East 498 573 36,800 600 Level FlightAware Transoceanic
12:54PM 41.0000 -140.0000 94° East 494 568 38,000  Climbing Oakland Oceanic (ODAPS)
12:55PM 40.9896 -139.8159 94° East 498 573 36,800  Descending FlightAware Transoceanic
12:55PM 40.9833 -139.7833 94° East 501 577 38,000  Climbing Oakland Oceanic (ODAPS)
12:56PM 40.9789 -139.6318 94° East 498 573 36,800 -1,200 Descending FlightAware Transoceanic
12:57PM 40.9679 -139.4478 95° East 498 573 36,800  Level FlightAware Transoceanic
12:58PM 40.9566 -139.2638 95° East 498 573 36,800  Level FlightAware Transoceanic
12:59PM 40.9450 -139.0799 95° East 498 573 36,800  Level FlightAware Transoceanic
01:00PM 40.9332 -138.8961 95° East 498 573 36,800 600 Level FlightAware Transoceanic
01:01PM 40.9345 -138.9158 95° East 494 568 38,000 600 Climbing FlightAware Transoceanic
01:02PM 40.9152 -138.6836 95° East 501 577 38,000  Level FlightAware Transoceanic
01:03PM 40.9028 -138.5005 95° East 501 577 38,000  Level FlightAware Transoceanic
01:04PM 40.8901 -138.3175 95° East 501 577 38,000  Level FlightAware Transoceanic
01:05PM 40.8772 -138.1346 95° East 501 577 38,000  Level FlightAware Transoceanic
01:06PM 40.8640 -137.9517 96° East 501 577 38,000  Level FlightAware Transoceanic
01:07PM 40.8504 -137.7689 96° East 501 577 38,000  Level FlightAware Transoceanic
01:08PM 40.8366 -137.5862 96° East 501 577 38,000  Level FlightAware Transoceanic
01:09PM 40.8225 -137.4036 96° East 501 577 38,000  Level FlightAware Transoceanic
01:09PM 40.8167 -137.3667 96° East 498 573 38,000  Level Oakland Oceanic (ODAPS)
01:10PM 40.8081 -137.2211 96° East 501 577 38,000  Level FlightAware Transoceanic
01:11PM 40.7934 -137.0386 96° East 501 577 38,000  Level FlightAware Transoceanic
01:12PM 40.7785 -136.8562 96° East 501 577 38,000  Level FlightAware Transoceanic
01:13PM 40.7632 -136.6739 96° East 501 577 38,000  Level FlightAware Transoceanic
01:14PM 40.7477 -136.4917 96° East 501 577 38,000  Level FlightAware Transoceanic
01:15PM 40.7318 -136.3095 97° East 501 577 38,000  Level FlightAware Transoceanic
01:16PM 40.7266 -136.2781 97° East 498 573 38,000  Level FlightAware Transoceanic
01:17PM 40.7105 -136.0970 97° East 498 573 38,000  Level FlightAware Transoceanic
01:18PM 40.6942 -135.9160 97° East 498 573 38,000  Level FlightAware Transoceanic
01:19PM 40.6777 -135.7350 97° East 498 573 38,000  Level FlightAware Transoceanic
01:20PM 40.6608 -135.5542 97° East 498 573 38,000  Level FlightAware Transoceanic
01:21PM 40.6437 -135.3734 97° East 498 573 38,000  Level FlightAware Transoceanic
01:22PM 40.6263 -135.1927 97° East 498 573 38,000  Level FlightAware Transoceanic
01:23PM 40.6085 -135.0121 97° East 498 573 38,000  Level FlightAware Transoceanic
01:23PM 40.6000 -134.9167 97° East 502 578 38,000  Level Oakland Oceanic (ODAPS)
01:24PM 40.5906 -134.8316 98° East 498 573 38,000  Level FlightAware Transoceanic
01:25PM 40.5723 -134.6513 98° East 498 573 38,000  Level FlightAware Transoceanic
01:26PM 40.5537 -134.4710 98° East 498 573 38,000  Level FlightAware Transoceanic
01:27PM 40.5349 -134.2908 98° East 498 573 38,000  Level FlightAware Transoceanic
01:28PM 40.5158 -134.1107 98° East 498 573 38,000  Level FlightAware Transoceanic
01:29PM 40.4964 -133.9307 98° East 498 573 38,000  Level FlightAware Transoceanic
01:30PM 40.4847 -133.8167 98° East 502 578 38,000  Level FlightAware Transoceanic
01:31PM 40.4645 -133.6338 98° East 502 578 38,000  Level FlightAware Transoceanic
01:32PM 40.4440 -133.4510 98° East 502 578 38,000  Level FlightAware Transoceanic
01:33PM 40.4232 -133.2682 99° East 502 578 38,000  Level FlightAware Transoceanic
01:34PM 40.4021 -133.0856 99° East 502 578 38,000  Level FlightAware Transoceanic
01:35PM 40.3807 -132.9031 99° East 502 578 38,000  Level FlightAware Transoceanic
01:36PM 40.3591 -132.7208 99° East 502 578 38,000  Level FlightAware Transoceanic
01:37PM 40.3371 -132.5385 99° East 502 578 38,000  Level FlightAware Transoceanic
01:37PM 40.3333 -132.4333 99° East 506 582 38,000  Level Oakland Oceanic (ODAPS)
01:38PM 40.3149 -132.3564 99° East 502 578 38,000  Level FlightAware Transoceanic
01:39PM 40.2924 -132.1743 99° East 502 578 38,000  Level FlightAware Transoceanic
01:40PM 40.2696 -131.9924 99° East 502 578 38,000  Level FlightAware Transoceanic
01:41PM 40.2465 -131.8107 100° East 502 578 38,000  Level FlightAware Transoceanic
01:42PM 40.2231 -131.6290 100° East 502 578 38,000  Level FlightAware Transoceanic
01:43PM 40.1967 -131.3876 100° East 506 582 38,000  Level FlightAware Transoceanic
01:44PM 40.1730 -131.2137 100° East 506 582 38,000  Level FlightAware Transoceanic
01:45PM 40.1491 -131.0399 100° East 506 582 38,000  Level FlightAware Transoceanic
01:46PM 40.1249 -130.8663 100° East 506 582 38,000  Level FlightAware Transoceanic
01:47PM 40.1004 -130.6928 101° East 506 582 38,000  Level FlightAware Transoceanic
01:48PM 40.0757 -130.5194 101° East 506 582 38,000  Level FlightAware Transoceanic
01:49PM 40.0507 -130.3461 101° East 506 582 38,000  Level FlightAware Transoceanic
01:50PM 40.0255 -130.1730 101° East 506 582 38,000  Level FlightAware Transoceanic
01:51PM 40.0000 -130.0000 89° East 506 582 38,000  Level FlightAware Transoceanic
01:52PM 40.0023 -129.8125 89° East 506 582 38,000  Level FlightAware Transoceanic
01:52PM 40.0000 -130.0000 89° East 522 601 38,000  Level Oakland Oceanic (ODAPS)
01:52PM 40.0000 -129.9000 89° East 520 598 38,000  Level Oakland Oceanic (ODAPS)
01:53PM 40.0042 -129.6250 89° East 506 582 38,000  Level FlightAware Transoceanic
01:54PM 40.0059 -129.4375 89° East 506 582 38,000  Level FlightAware Transoceanic
01:55PM 40.0073 -129.2500 90° East 506 582 38,000  Level FlightAware Transoceanic
01:56PM 40.0083 -129.0625 90° East 506 582 38,000  Level FlightAware Transoceanic
01:57PM 40.0091 -128.8750 90° East 506 582 38,000  Level FlightAware Transoceanic
01:58PM 40.0089 -128.6313 90° East 520 598 38,000  Level FlightAware Transoceanic
01:59PM 40.0090 -128.4500 90° East 520 598 38,000  Level FlightAware Transoceanic
02:00PM 40.0089 -128.2687 90° East 520 598 38,000  Level FlightAware Transoceanic
02:01PM 40.0085 -128.0875 90° East 520 598 38,000  Level FlightAware Transoceanic
02:02PM 40.0078 -127.9062 90° East 520 598 38,000  Level FlightAware Transoceanic
02:03PM 40.0068 -127.7250 90° East 520 598 38,000  Level FlightAware Transoceanic
02:04PM 40.0055 -127.5437 91° East 520 598 38,000  Level FlightAware Transoceanic
02:04PM 40.0119 -127.5197 107° East 516 594 38,000  Level Oakland Center
02:05PM 40.0039 -127.3625 91° East 520 598 38,000  Level FlightAware Transoceanic
02:05PM 40.0106 -127.3325 94° East 517 595 38,000  Level Oakland Center
02:05PM 40.0167 -127.3000 94° East 523 602 38,000  Level Oakland Oceanic (ODAPS)
02:06PM 40.0021 -127.1812 91° East 520 598 38,000  Level FlightAware Transoceanic
02:06PM 40.0092 -127.1450 90° East 518 596 38,000  Level Oakland Center
02:07PM 40.0000 -127.0000 107° East 520 598 38,000  Level FlightAware Transoceanic
02:07PM 39.9986 -126.9586 94° East 517 595 38,000  Level Oakland Center
02:08PM 39.9554 -126.8109 107° East 520 598 38,000  Level FlightAware Transoceanic
02:09PM 39.9104 -126.6221 107° East 520 598 38,000  Level FlightAware Transoceanic
02:12PM 39.8410 -125.9430 94° East 521 600 38,000  Level FlightAware
02:13PM 39.8400 -125.8080 91° East 538 619 38,000  Level FlightAware
02:13PM 39.8310 -125.7340 99° East 538 619 38,000 660 Level FlightAware
02:14PM 39.8140 -125.5970 99° East 538 619 38,800 780 Climbing FlightAware
02:15PM 39.7850 -125.4980 111° Southeast 511 588 39,000 120 Climbing FlightAware
02:15PM 39.7700 -125.3820 100° East 512 589 39,000  Level FlightAware
02:16PM 39.7560 -125.2710 99° East 513 590 39,000  Level FlightAware
02:16PM 39.7400 -125.1560 100° East 513 590 39,000  Level FlightAware
02:17PM 39.7250 -125.0330 99° East 505 581 39,000  Level FlightAware
02:18PM 39.7210 -124.8940 92° East 505 581 39,000  Level FlightAware
02:18PM 39.6960 -124.8190 113° Southeast 508 585 39,000  Level FlightAware
02:19PM 39.6800 -124.7070 100° East 502 578 39,000  Level FlightAware
02:19PM 39.6680 -124.6100 99° East 499 574 39,000  Level FlightAware
02:20PM 39.6610 -124.4600 93° East 499 574 39,000  Level FlightAware
02:21PM 39.6470 -124.3520 100° East 499 574 39,000  Level FlightAware
02:21PM 39.6190 -124.2650 113° Southeast 509 586 39,000  Level FlightAware
02:22PM 39.6160 -124.1400 92° East 510 587 39,000  Level FlightAware
02:23PM 39.6010 -124.0340 100° East 510 587 39,000  Level FlightAware
02:23PM 39.5750 -123.9480 111° Southeast 526 605 39,000  Level FlightAware
02:24PM 39.5690 -123.8080 93° East 501 577 39,000  Level FlightAware
02:24PM 39.5540 -123.7090 101° East 501 577 39,000  Level FlightAware
02:25PM 39.5360 -123.5830 100° East 500 575 39,000  Level FlightAware
02:26PM 39.5210 -123.4860 101° East 500 575 39,000  Level FlightAware
02:26PM 39.5050 -123.3770 101° East 500 575 39,000  Level FlightAware
02:27PM 39.4910 -123.2850 101° East 500 575 39,000  Level FlightAware
02:27PM 39.4620 -123.1760 109° East 518 596 39,000  Level FlightAware
02:28PM 39.4480 -123.0820 101° East 517 595 39,000  Level FlightAware
02:29PM 39.4310 -122.9700 101° East 517 595 39,000  Level FlightAware
02:29PM 39.4140 -122.8610 101° East 516 594 39,000  Level FlightAware
02:30PM 39.3980 -122.7580 101° East 515 593 39,000  Level FlightAware
02:30PM 39.3820 -122.6550 101° East 515 593 39,000  Level FlightAware
02:31PM 39.3660 -122.5480 101° East 515 593 39,000  Level FlightAware
02:31PM 39.3480 -122.4370 102° East 515 593 39,000  Level FlightAware
02:32PM 39.3310 -122.3280 101° East 515 593 39,000  Level FlightAware
02:33PM 39.3150 -122.2260 101° East 515 593 39,000  Level FlightAware
02:33PM 39.3000 -122.1310 102° East 515 593 39,000  Level FlightAware
02:34PM 39.2810 -122.0170 102° East 516 594 39,000  Level FlightAware
02:34PM 39.2650 -121.9150 101° East 516 594 39,000  Level FlightAware
02:35PM 39.2567 -121.8630 102° East 517 595 39,000  Level FlightAware ADS-B (KAHC)
02:36PM 39.2342 -121.7257 102° East 518 596 39,000  Level FlightAware ADS-B (KAHC)
02:36PM 39.2120 -121.5930 102° East 516 594 39,000  Level FlightAware
02:36PM 39.2162 -121.5478 83° East 483 556 39,000  Level FlightAware ADS-B (KAHC)
02:37PM 39.1760 -121.3720 106° East 517 595 39,000  Level FlightAware
02:38PM 39.1655 -121.3104 102° East 515 593 39,000  Level FlightAware ADS-B (KAHC)
02:38PM 39.1446 -121.1865 102° East 515 593 39,000  Level FlightAware ADS-B (KAHC)
02:39PM 39.1290 -121.0940 102° East 514 592 39,000  Level FlightAware ADS-B (KAHC)
02:39PM 39.1133 -121.0020 102° East 513 590 39,000  Level FlightAware ADS-B (KAHC)
02:40PM 39.0950 -120.8954 102° East 513 590 39,000  Level FlightAware ADS-B (KAHC)
02:41PM 39.0800 -120.8077 102° East 513 590 39,000  Level FlightAware ADS-B (KAHC)
02:41PM 39.0640 -120.7152 103° East 513 590 39,000  Level FlightAware ADS-B (KAHC)
02:42PM 39.0484 -120.6254 103° East 513 590 39,000  Level FlightAware ADS-B (KAHC)
02:42PM 39.0276 -120.5065 103° East 514 592 39,000  Level FlightAware ADS-B (KAHC)
02:43PM 39.0118 -120.4161 103° East 515 593 39,000  Level FlightAware ADS-B (KAHC)
02:43PM 39.0020 -120.2986 96° East 477 549 39,000  Level FlightAware ADS-B (KAHC)
02:44PM 38.9829 -120.1913 103° East 476 548 39,000  Level FlightAware ADS-B (KAHC)
02:44PM 38.9666 -120.0995 103° East 479 551 39,000  Level FlightAware ADS-B (KAHC)
02:45PM 38.9405 -120.0154 112° Southeast 515 593 39,000  Level FlightAware ADS-B (KAHC)
02:46PM 38.9190 -119.8962 103° East 516 594 39,000  Level FlightAware ADS-B (KAHC)
02:46PM 38.8975 -119.7778 126° Southeast 517 595 39,000  Level FlightAware ADS-B (KAHC)
02:47PM 38.8809 -119.6867 103° East 517 595 39,000  Level FlightAware ADS-B (KAHC)
02:47PM 38.8648 -119.5990 103° East 516 594 39,000  Level FlightAware ADS-B (KAHC)
02:48PM 38.8427 -119.4789 103° East 517 595 39,000  Level FlightAware ADS-B (KAHC)
02:49PM 38.8240 -119.3783 103° East 516 594 39,000  Level FlightAware ADS-B (KAHC)
02:49PM 38.8082 -119.2931 103° East 517 595 39,000  Level FlightAware ADS-B (KAHC)
02:50PM 38.7892 -119.1921 104° East 517 595 39,000  Level FlightAware ADS-B (KAHC)
02:50PM 38.7726 -119.1036 104° East 517 595 39,000  Level FlightAware ADS-B (KAHC)
02:51PM 38.7559 -119.0150 104° East 519 597 39,000  Level FlightAware ADS-B (KAHC)
02:51PM 38.7346 -118.9031 104° East 519 597 39,000  Level FlightAware ADS-B (KAHC)
02:52PM 38.7175 -118.8130 104° East 519 597 39,000  Level FlightAware ADS-B (KAHC)
02:52PM 38.6950 -118.6980 104° East 519 597 39,000  Level FlightAware
02:53PM 38.6720 -118.5770 104° East 520 598 39,000  Level FlightAware
02:54PM 38.6510 -118.4700 104° East 521 600 39,000  Level FlightAware
02:54PM 38.6300 -118.3610 104° East 523 602 39,000  Level FlightAware
02:55PM 38.6100 -118.2600 104° East 522 601 39,000  Level FlightAware
02:55PM 38.5890 -118.1540 104° East 523 602 39,000  Level FlightAware
02:56PM 38.5710 -118.0540 103° East 521 600 39,000  Level FlightAware
02:57PM 38.5600 -117.9450 97° East 521 600 39,000  Level FlightAware
02:57PM 38.5520 -117.8440 96° East 521 600 39,000  Level FlightAware
02:58PM 38.5440 -117.7500 96° East 487 560 39,000  Level FlightAware
02:58PM 38.5360 -117.6310 95° East 520 598 39,000  Level FlightAware
02:59PM 38.5260 -117.4990 95° East 519 597 39,000  Level FlightAware
02:59PM 38.5190 -117.4110 96° East 521 600 39,000  Level FlightAware
03:00PM 38.5120 -117.3070 95° East 521 600 39,000  Level FlightAware
03:01PM 38.5060 -117.2130 95° East 521 600 39,000  Level FlightAware
03:01PM 38.5120 -117.0840 87° East 337 388 39,000  Level FlightAware
03:02PM 38.4880 -117.0050 111° Southeast 522 601 39,000  Level FlightAware
03:02PM 38.4800 -116.8970 95° East 522 601 39,000  Level FlightAware
03:03PM 38.4700 -116.7760 96° East 522 601 39,000  Level FlightAware
03:03PM 38.4610 -116.6680 96° East 522 601 39,000  Level FlightAware
03:04PM 38.4520 -116.5620 96° East 521 600 39,000  Level FlightAware
03:05PM 38.4430 -116.4560 96° East 521 600 39,000  Level FlightAware
03:05PM 38.4520 -116.3360 84° East 519 597 39,000  Level FlightAware
03:06PM 38.4440 -116.2320 96° East 519 597 39,000  Level FlightAware
03:07PM 38.4360 -116.1440 97° East 519 597 39,000  Level FlightAware
03:07PM 38.4290 -116.0550 96° East 519 597 39,000  Level FlightAware
03:08PM 38.4210 -115.9570 96° East 519 597 39,000  Level FlightAware
03:08PM 38.4130 -115.8610 96° East 519 597 39,000  Level FlightAware
03:09PM 38.4050 -115.7650 96° East 519 597 39,000  Level FlightAware
03:10PM 38.3970 -115.6690 96° East 519 597 39,000  Level FlightAware
03:10PM 38.3900 -115.5760 95° East 519 597 39,000  Level FlightAware
03:11PM 38.3800 -115.4620 96° East 519 597 39,000  Level FlightAware
03:12PM 38.3720 -115.3690 96° East 519 597 39,000  Level FlightAware
03:12PM 38.3650 -115.2760 95° East 519 597 39,000  Level FlightAware
03:13PM 38.3570 -115.1830 96° East 519 597 39,000  Level FlightAware
03:13PM 38.3490 -115.0890 96° East 519 597 39,000  Level FlightAware
03:14PM 38.3410 -114.9940 96° East 519 597 39,000  Level FlightAware
03:15PM 38.3340 -114.8980 95° East 519 597 39,000  Level FlightAware
03:15PM 38.3260 -114.8050 96° East 519 597 39,000  Level FlightAware
03:18PM 38.1471 -113.9968 105° East 519 597 39,000  Level FlightAware ADS-B
03:19PM 38.1200 -113.8910 108° East 520 598 39,000  Level FlightAware
03:19PM 38.1174 -113.7872 92° East 477 549 39,000  Level FlightAware ADS-B
03:20PM 38.0701 -113.7042 126° Southeast 520 598 39,000  Level FlightAware ADS-B
03:21PM 38.0500 -113.6190 107° East 520 598 39,000  Level FlightAware
03:21PM 38.0270 -113.5280 108° East 520 598 39,000  Level FlightAware
03:22PM 37.9730 -113.3420 110° East 519 597 39,000  Level FlightAware
03:23PM 37.9436 -113.2311 109° East 523 602 39,000  Level FlightAware ADS-B
03:24PM 37.8900 -113.0330 109° East 521 600 39,000  Level FlightAware
03:24PM 37.8630 -112.9340 109° East 523 602 39,000  Level FlightAware
03:25PM 37.8390 -112.8440 109° East 523 602 39,000  Level FlightAware
03:26PM 37.7960 -112.6840 109° East 524 603 39,000  Level FlightAware
03:26PM 37.7960 -112.5910 90° East 796 916 39,000  Level FlightAware
03:27PM 37.7760 -112.5200 110° East 461 531 39,000  Level FlightAware
03:27PM 37.7430 -112.4030 110° East 558 642 39,000  Level FlightAware
03:28PM 37.7120 -112.2860 108° East 400 460 39,000  Level FlightAware
03:29PM 37.6530 -112.1260 115° Southeast 528 608 39,000  Level FlightAware
03:30PM 37.6330 -112.0280 104° East 528 608 39,000  Level FlightAware
03:30PM 37.6130 -111.9280 104° East 528 608 39,000  Level FlightAware
03:31PM 37.5800 -111.7700 105° East 528 608 39,000  Level FlightAware
03:32PM 37.5620 -111.6790 104° East 528 608 39,000  Level FlightAware
03:32PM 37.5430 -111.5850 104° East 528 608 39,000  Level FlightAware
03:33PM 37.5100 -111.4390 106° East 527 606 39,000  Level FlightAware
03:33PM 37.4900 -111.3440 105° East 526 605 39,000  Level FlightAware
03:34PM 37.4720 -111.2530 104° East 526 605 39,000  Level FlightAware
03:35PM 37.4530 -111.1570 104° East 526 605 39,000  Level FlightAware
03:35PM 37.4360 -111.0710 104° East 526 605 39,000  Level FlightAware
03:36PM 37.3960 -110.9090 107° East 521 600 39,000  Level FlightAware
03:37PM 37.3880 -110.7630 94° East 521 600 39,000  Level FlightAware
03:37PM 37.3630 -110.6490 105° East 521 600 39,000  Level FlightAware
03:38PM 37.3440 -110.5600 105° East 521 600 39,000  Level FlightAware
03:38PM 37.3250 -110.4700 105° East 521 600 39,000  Level FlightAware
03:39PM 37.3060 -110.3800 105° East 521 600 39,000  Level FlightAware
03:40PM 37.2870 -110.2910 105° East 521 600 39,000  Level FlightAware
03:40PM 37.2718 -110.2415 111° Southeast 476 548 39,000  Level FlightAware ADS-B (KMTJ)
03:41PM 37.2349 -110.0782 106° East 476 548 39,000  Level FlightAware ADS-B (KMTJ)
03:41PM 37.1970 -109.9140 106° East 475 547 39,000  Level FlightAware
03:42PM 37.1830 -109.8497 105° East 475 547 39,000  Level FlightAware ADS-B
03:43PM 37.1534 -109.7204 106° East 477 549 39,000  Level FlightAware ADS-B
03:43PM 37.1274 -109.6081 106° East 475 547 39,000  Level FlightAware ADS-B (KMTJ)
03:44PM 37.1039 -109.5062 106° East 476 548 39,000  Level FlightAware ADS-B (KMTJ)
03:44PM 37.1270 -109.6010 287° West 477 549 39,000  Level FlightAware
03:44PM 37.0849 -109.4235 107° East 478 550 39,000  Level FlightAware ADS-B (KMTJ)
03:45PM 37.1090 -109.5200 287° West 477 549 39,000  Level FlightAware
03:45PM 37.0519 -109.2823 107° East 480 552 39,000  Level FlightAware ADS-B
03:45PM 37.0281 -109.1814 106° East 481 554 39,000  Level FlightAware ADS-B
03:46PM 37.0054 -109.0853 106° East 481 554 39,000  Level FlightAware ADS-B (KMTJ)
03:47PM 36.9870 -109.0040 106° East 481 554 39,000  Level FlightAware
03:47PM 36.9795 -108.9754 108° East 483 556 39,000  Level FlightAware ADS-B (KMTJ)
03:47PM 36.9496 -108.8496 107° East 483 556 39,000  Level FlightAware ADS-B (KMTJ)
03:48PM 36.9480 -108.8350 98° East 481 554 39,000  Level FlightAware
03:48PM 36.9161 -108.7086 107° East 484 557 39,000  Level FlightAware ADS-B (KMTJ)
03:49PM 36.8918 -108.6075 107° East 486 559 39,000  Level FlightAware ADS-B
03:49PM 36.8629 -108.4875 107° East 482 555 39,000  Level FlightAware ADS-B
03:50PM 36.8389 -108.3887 107° East 487 560 39,000  Level FlightAware ADS-B
03:50PM 36.8160 -108.2941 107° East 487 560 39,000  Level FlightAware ADS-B
03:51PM 36.7910 -108.1916 107° East 489 563 39,000  Level FlightAware ADS-B
03:51PM 36.7649 -108.0850 107° East 490 564 39,000  Level FlightAware ADS-B (KMTJ)
03:52PM 36.7398 -107.9743 106° East 490 564 39,000  Level FlightAware ADS-B
03:53PM 36.7218 -107.8843 104° East 491 565 39,000  Level FlightAware ADS-B
03:53PM 36.7014 -107.7831 104° East 491 565 39,000  Level FlightAware ADS-B
03:53PM 36.6993 -107.7726 104° East 491 565 39,000  Level FlightAware ADS-B (KMTJ)
03:54PM 36.6762 -107.6598 104° East 490 564 39,000  Level FlightAware ADS-B
03:54PM 36.6431 -107.5895 120° Southeast 558 642 39,000  Level FlightAware ADS-B
03:55PM 36.6322 -107.4504 96° East 491 565 39,000  Level FlightAware ADS-B
03:55PM 36.6128 -107.3589 105° East 489 563 39,000  Level FlightAware ADS-B
03:56PM 36.5925 -107.2648 105° East 490 564 39,000  Level FlightAware ADS-B
03:56PM 36.5714 -107.1664 105° East 489 563 39,000  Level FlightAware ADS-B
03:57PM 36.5651 -107.1373 105° East 490 564 39,000  Level FlightAware ADS-B (KMTJ)
03:57PM 36.5311 -107.0657 121° Southeast 564 649 39,000  Level FlightAware ADS-B
03:58PM 36.5651 -107.1373 301° West 561 646 39,000  Level FlightAware ADS-B (KMTJ)
03:59PM 36.5651 -107.1373 301° West 562 647 39,000  Level FlightAware ADS-B (KMTJ)
03:59PM 36.5651 -107.1373 301° West 491 565 39,000  Level FlightAware ADS-B (KMTJ)
04:00PM 36.4230 -106.4840 105° East 563 648 39,000  Level FlightAware
04:01PM 36.3940 -106.3500 105° East 555 639 39,000  Level FlightAware
04:01PM 36.3680 -106.2360 106° East 555 639 39,000  Level FlightAware
04:02PM 36.3440 -106.1270 105° East 555 639 39,000  Level FlightAware
04:03PM 36.3200 -106.0220 106° East 557 641 39,000  Level FlightAware
04:03PM 36.2960 -105.9130 105° East 557 641 39,000  Level FlightAware
04:04PM 36.2680 -105.7910 106° East 555 639 39,000  Level FlightAware
04:05PM 36.2390 -105.6570 105° East 555 639 39,000  Level FlightAware
04:05PM 36.2070 -105.5190 106° East 555 639 39,000  Level FlightAware
04:06PM 36.1850 -105.4260 106° East 555 639 39,000  Level FlightAware
04:06PM 36.1570 -105.3070 106° East 555 639 39,000  Level FlightAware
04:07PM 36.1350 -105.2090 106° East 555 639 39,000  Level FlightAware
04:08PM 36.1100 -105.1010 106° East 555 639 39,000  Level FlightAware
04:08PM 36.0880 -105.0060 106° East 555 639 39,000  Level FlightAware
04:09PM 36.0600 -104.8880 106° East 555 639 39,000  Level FlightAware
04:09PM 36.0370 -104.7880 106° East 555 639 39,000  Level FlightAware
04:10PM 36.0110 -104.6790 106° East 555 639 39,000  Level FlightAware
04:10PM 35.9930 -104.6020 106° East 555 639 39,000  Level FlightAware
04:11PM 35.9630 -104.4750 106° East 555 639 39,000  Level FlightAware
04:12PM 35.9340 -104.3560 107° East 555 639 39,000  Level FlightAware
04:12PM 35.9090 -104.2500 106° East 555 639 39,000  Level FlightAware
04:13PM 35.8850 -104.1510 107° East 555 639 39,000  Level FlightAware
04:13PM 35.8580 -104.0420 107° East 555 639 39,000  Level FlightAware
04:14PM 35.8340 -103.9420 106° East 555 639 39,000  Level FlightAware
04:15PM 35.8070 -103.8310 107° East 555 639 39,000  Level FlightAware
04:15PM 35.7820 -103.7270 106° East 555 639 39,000  Level FlightAware
04:16PM 35.7560 -103.6240 107° East 555 639 39,000  Level FlightAware
04:16PM 35.7320 -103.5260 107° East 555 639 39,000  Level FlightAware
04:17PM 35.7030 -103.4080 107° East 555 639 39,000  Level FlightAware
04:18PM 35.6750 -103.2980 107° East 555 639 39,000  Level FlightAware
04:18PM 35.6510 -103.2010 107° East 555 639 39,000  Level FlightAware
04:19PM 35.6250 -103.0980 107° East 555 639 39,000  Level FlightAware
04:19PM 35.5970 -102.9860 107° East 555 639 39,000  Level FlightAware
04:20PM 35.5720 -102.8880 107° East 555 639 39,000  Level FlightAware
04:20PM 35.5480 -102.7920 107° East 555 639 39,000  Level FlightAware
04:21PM 35.5170 -102.6740 108° East 555 639 39,000  Level FlightAware
04:22PM 35.4890 -102.5750 109° East 555 639 39,000  Level FlightAware
04:22PM 35.4540 -102.4840 115° Southeast 555 639 39,000  Level FlightAware
04:23PM 35.4130 -102.3820 116° Southeast 555 639 39,000  Level FlightAware
04:23PM 35.3780 -102.2900 115° Southeast 555 639 39,000  Level FlightAware
04:24PM 35.3400 -102.1870 114° Southeast 555 639 39,000  Level FlightAware
04:25PM 35.3010 -102.0820 114° Southeast 555 639 39,000  Level FlightAware
04:25PM 35.2700 -101.9980 114° Southeast 555 639 39,000  Level FlightAware
04:26PM 35.2310 -101.8960 115° Southeast 694 799 39,000  Level FlightAware
04:26PM 35.1940 -101.7950 114° Southeast 596 686 39,000  Level FlightAware
04:27PM 35.1620 -101.7090 114° Southeast 448 516 39,000  Level FlightAware
04:27PM 35.1370 -101.6460 116° Southeast 555 639 39,000  Level FlightAware
04:28PM 35.1000 -101.5480 115° Southeast 555 639 39,000  Level FlightAware
04:28PM 35.0620 -101.4500 115° Southeast 555 639 39,000  Level FlightAware
04:29PM 35.0240 -101.3540 116° Southeast 555 639 39,000  Level FlightAware
04:29PM 34.9900 -101.2650 115° Southeast 555 639 39,000  Level FlightAware
04:30PM 34.9540 -101.1730 115° Southeast 555 639 39,000  Level FlightAware
04:30PM 34.9330 -101.1190 115° Southeast 530 610 39,000  Level FlightAware
04:31PM 34.8910 -101.0140 116° Southeast 489 563 39,000  Level FlightAware
04:32PM 34.8510 -100.9120 116° Southeast 555 639 39,000  Level FlightAware
04:32PM 34.8190 -100.8300 115° Southeast 437 503 39,000  Level FlightAware
04:33PM 34.7770 -100.7240 116° Southeast 538 619 39,000  Level FlightAware
04:33PM 34.7390 -100.6280 116° Southeast 632 727 39,000  Level FlightAware
04:34PM 34.7020 -100.5360 116° Southeast 539 620 39,000  Level FlightAware
04:35PM 34.6650 -100.4430 116° Southeast 462 532 39,000  Level FlightAware
04:35PM 34.6260 -100.3470 116° Southeast 545 627 39,000  Level FlightAware
04:36PM 34.5910 -100.2580 116° Southeast 470 541 39,000  Level FlightAware
04:36PM 34.5500 -100.1580 116° Southeast 567 652 39,000  Level FlightAware
04:37PM 34.5140 -100.0680 116° Southeast 490 564 39,000  Level FlightAware
04:37PM 34.4800 -99.9850 116° Southeast 273 314 39,000  Level FlightAware
04:38PM 34.4350 -99.8740 116° Southeast 623 717 39,000  Level FlightAware
04:39PM 34.4000 -99.7890 117° Southeast 547 629 39,000  Level FlightAware
04:39PM 34.3370 -99.7170 137° Southeast 530 610 39,000  Level FlightAware
04:40PM 34.3010 -99.6300 117° Southeast 530 610 39,000 -180 Level FlightAware
04:40PM 34.2610 -99.5330 116° Southeast 529 609 38,800 -900 Descending FlightAware
04:41PM 34.2270 -99.4510 117° Southeast 533 613 38,000 -1,380 Descending FlightAware
04:42PM 34.1850 -99.3500 117° Southeast 535 616 37,200 -1,560 Descending FlightAware
04:42PM 34.1460 -99.2640 119° Southeast 534 615 36,200 -900 Descending FlightAware
04:43PM 34.0870 -99.1420 120° Southeast 527 606 35,900 -2,220 Descending FlightAware
04:44PM 34.0450 -99.0460 118° Southeast 536 617 33,100 -3,840 Descending FlightAware
04:44PM 34.0100 -98.9560 115° Southeast 531 611 31,800 -1,080 Descending FlightAware
04:45PM 33.9740 -98.8650 115° Southeast 531 611 31,800 -2,340 Level FlightAware
04:45PM 33.9330 -98.7730 118° Southeast 512 589 29,100 -3,600 Descending FlightAware
04:46PM 33.8870 -98.6800 121° Southeast 495 570 27,700 -2,100 Descending FlightAware
04:47PM 33.8380 -98.5800 121° Southeast 485 558 26,300 -1,980 Descending FlightAware
04:47PM 33.7950 -98.4890 120° Southeast 474 545 25,000 -1,980 Descending FlightAware
04:48PM 33.7540 -98.4050 120° Southeast 466 536 23,800 -1,980 Descending FlightAware
04:48PM 33.7210 -98.3360 120° Southeast 459 528 22,800 -1,320 Descending FlightAware
04:49PM 33.6690 -98.2260 120° Southeast 453 521 22,000 -1,860 Descending FlightAware
04:50PM 33.6320 -98.1510 121° Southeast 439 505 20,200 -2,580 Descending FlightAware
04:50PM 33.6030 -98.0900 120° Southeast 431 496 19,300 -1,320 Descending FlightAware
04:51PM 33.5490 -97.9780 120° Southeast 425 489 18,300 -1,980 Descending FlightAware
04:52PM 33.5160 -97.9110 121° Southeast 412 474 16,500 -2,640 Descending FlightAware
04:52PM 33.4820 -97.8410 120° Southeast 405 466 15,400 -1,740 Descending FlightAware
04:53PM 33.4510 -97.7780 121° Southeast 399 459 14,500 -1,680 Descending FlightAware
04:54PM 33.4170 -97.7090 121° Southeast 391 450 13,500 -1,560 Descending FlightAware
04:54PM 33.4130 -97.7006 120° Southeast 386 444 13,300 -1,860 Descending FlightAware ADS-B (KAFW)
04:55PM 33.3400 -97.5900 128° Southeast 360 414 11,300 -1,500 Descending FlightAware
04:55PM 33.3010 -97.5440 135° Southeast 351 404 10,900 -420 Descending FlightAware
04:56PM 33.2744 -97.5128 136° Southeast 355 409 10,900  Level FlightAware ADS-B (KAFW)
04:56PM 33.2351 -97.4669 136° Southeast 355 409 10,900  Level FlightAware ADS-B (KAFW)
04:57PM 33.1910 -97.4153 136° Southeast 356 410 10,900  Level FlightAware ADS-B (KAFW)
04:58PM 33.1485 -97.3655 136° Southeast 355 409 10,900  Level FlightAware ADS-B (KAFW)
04:58PM 33.1067 -97.3166 136° Southeast 333 383 10,900  Level FlightAware ADS-B (KAFW)
04:59PM 33.0710 -97.2748 136° Southeast 299 344 10,900  Level FlightAware ADS-B (KAFW)
04:59PM 33.0362 -97.2343 136° Southeast 268 308 10,900  Level FlightAware ADS-B (KAFW)
05:00PM 33.0052 -97.1985 136° Southeast 268 308 10,900  Level FlightAware ADS-B (KAFW)
05:00PM 32.9782 -97.1744 143° Southeast 262 302 10,900  Level FlightAware ADS-B (KAFW)
05:01PM 32.9561 -97.1705 172° South 253 291 10,900 -660 Level FlightAware ADS-B (KAFW)
05:01PM 32.9123 -97.1699 179° South 248 285 10,300 -1,020 Descending FlightAware ADS-B (KAFW)
05:02PM 32.8991 -97.1698 180° South 246 283 10,100 -1,140 Descending FlightAware ADS-B (KAFW)
05:02PM 32.8751 -97.1698 180° South 241 277 9,700 -1,080 Descending FlightAware ADS-B (KAFW)
05:02PM 32.8661 -97.1698 180° South 239 275 9,600 -900 Descending FlightAware ADS-B (KAFW)
05:02PM 32.8514 -97.1696 179° South 237 273 9,400 -1,080 Descending FlightAware ADS-B (KAFW)
05:03PM 32.8306 -97.1695 180° South 235 270 9,100 -1,320 Descending FlightAware ADS-B (KAFW)
05:03PM 32.8126 -97.1694 180° South 236 272 8,600 -1,500 Descending FlightAware ADS-B (KAFW)
05:03PM 32.7897 -97.1691 179° South 236 272 8,100 -1,320 Descending FlightAware ADS-B (KAFW)
05:04PM 32.7721 -97.1689 179° South 226 260 7,700 -1,320 Descending FlightAware ADS-B (KAFW)
05:04PM 32.7426 -97.1686 180° South 226 260 7,100 -2,040 Descending FlightAware ADS-B (KAFW)
05:05PM 32.7080 -97.1520 158° South 221 254 5,800 -2,160 Descending FlightAware
05:05PM 32.7040 -97.1440 121° Southeast 217 250 5,700 -1,140 Descending FlightAware
05:05PM 32.7030 -97.1340 97° East 209 241 5,500 -480 Descending FlightAware
05:05PM 32.7029 -97.1351 264° West 215 247 5,600 -1,860 Climbing FlightAware ADS-B (KAFW)
05:05PM 32.7010 -97.0930 93° East 204 235 4,400 -1,800 Descending FlightAware
05:06PM 32.7100 -97.0690 66° East 190 219 3,900 -900 Descending FlightAware
05:06PM 32.7250 -97.0600 27° Northeast 177 204 3,700 -720 Descending FlightAware
05:06PM 32.7290 -97.0580 23° Northeast 173 199 3,600 -1,320 Descending FlightAware
05:06PM 32.7370 -97.0560 12° North 170 196 3,400 -900 Descending FlightAware
05:07PM 32.7450 -97.0560 360° North 164 189 3,300  Descending FlightAware
05:07PM 32.7540 -97.0560 360° North 153 176 3,400 -360 Climbing FlightAware
05:07PM 32.7710 -97.0560 360° North 170 196 3,100 -1,200 Descending FlightAware
05:08PM 32.7900 -97.0550 North 167 192 2,500 -1,500 Descending FlightAware
05:08PM 32.8050 -97.0550 360° North 162 186 2,000 -720 Descending FlightAware
05:08PM 32.8250 -97.0550 360° North 158 182 1,900 -780 Descending FlightAware
05:09PM 32.8310 -97.0550 360° North 135 155 1,500 -1,500 Descending FlightAware
05:09PM 32.8430 -97.0550 360° North 138 159 1,200 -420 Descending FlightAware
05:09PM 32.8580 -97.0550 360° North 138 159 1,200 -780 Level FlightAware
05:10PM 32.8460 -97.0550 180° South 136 157 800 -720 Descending FlightAware
05:10PM 32.8610 -97.0550 360° North 136 157 800  Level FlightAware